Time;durP1;ratioP1;P1;durP2;ratioP2;P2;SDS_P1;SDS_P2;PMS_P1;PMS_P2;Temp;Humidity;BMP_temperature;BMP_pressure;BME280_temperature;BME280_humidity;BME280_pressure;Samples;Min_cycle;Max_cycle;Signal;HPM_P1;HPM_P2
2021/05/13 00:02:03;;;;;;;6.60;5.47;;;16.30;99.90;;;;;;5113941;27;20463;-65
2021/05/13 00:04:30;;;;;;;5.67;4.77;;;16.30;99.90;;;;;;5115066;27;20452;-64
2021/05/13 00:06:56;;;;;;;6.67;6.07;;;16.30;99.90;;;;;;5114445;28;20526;-65
2021/05/13 00:09:23;;;;;;;7.37;4.70;;;16.20;99.90;;;;;;5114150;27;20469;-64
2021/05/13 00:11:52;;;;;;;6.90;6.00;;;16.20;99.90;;;;;;5114764;28;20464;-65
2021/05/13 00:14:18;;;;;;;6.90;6.30;;;16.20;99.90;;;;;;5114265;27;20473;-64
2021/05/13 00:16:46;;;;;;;8.93;6.10;;;16.20;99.90;;;;;;5114689;28;20468;-65
2021/05/13 00:19:15;;;;;;;12.73;6.60;;;16.20;99.90;;;;;;5113988;28;20464;-65
2021/05/13 00:21:44;;;;;;;6.30;5.67;;;16.20;99.90;;;;;;5114706;28;20461;-65
2021/05/13 00:24:13;;;;;;;6.70;6.20;;;16.30;99.90;;;;;;5114156;27;20452;-64
2021/05/13 00:26:41;;;;;;;8.87;6.47;;;16.20;99.90;;;;;;5113891;28;20456;-63
2021/05/13 00:29:10;;;;;;;8.70;6.70;;;16.20;99.90;;;;;;5114254;27;20475;-64
2021/05/13 00:31:37;;;;;;;8.17;6.93;;;16.20;99.90;;;;;;5114431;28;20461;-64
2021/05/13 00:34:04;;;;;;;8.37;7.57;;;16.20;99.90;;;;;;5114002;28;20469;-65
2021/05/13 00:36:32;;;;;;;7.00;6.30;;;16.20;99.90;;;;;;5114166;27;20525;-64
2021/05/13 00:38:59;;;;;;;9.43;7.00;;;16.10;99.90;;;;;;5114384;27;20537;-64
2021/05/13 00:41:26;;;;;;;7.60;6.07;;;16.10;99.90;;;;;;5113847;28;20896;-64
2021/05/13 00:43:53;;;;;;;7.53;5.50;;;16.10;99.90;;;;;;5114232;28;20468;-65
2021/05/13 00:46:22;;;;;;;6.60;5.80;;;16.10;99.90;;;;;;5113696;28;20965;-64
2021/05/13 00:48:48;;;;;;;6.90;5.50;;;16.10;99.90;;;;;;5111402;28;20943;-64
2021/05/13 00:51:16;;;;;;;6.63;5.60;;;16.10;99.90;;;;;;5113848;28;20465;-64
2021/05/13 00:53:47;;;;;;;7.13;6.40;;;16.10;99.90;;;;;;5114021;28;20802;-64
2021/05/13 00:56:14;;;;;;;8.23;6.00;;;16.00;99.90;;;;;;5101520;28;20465;-63
2021/05/13 00:58:44;;;;;;;8.23;5.17;;;15.90;99.90;;;;;;5113781;28;20479;-64
2021/05/13 01:01:12;;;;;;;6.40;5.10;;;15.90;99.90;;;;;;5113051;27;20464;-64
2021/05/13 01:03:40;;;;;;;7.50;4.67;;;15.90;99.90;;;;;;5113323;28;20456;-64
2021/05/13 01:06:11;;;;;;;9.90;4.80;;;15.70;99.90;;;;;;5113621;28;20460;-64
2021/05/13 01:08:38;;;;;;;6.13;4.07;;;15.70;99.90;;;;;;5113505;27;20465;-64
2021/05/13 01:11:07;;;;;;;6.10;5.37;;;15.70;99.90;;;;;;5113783;28;20807;-64
2021/05/13 01:13:35;;;;;;;8.20;4.20;;;15.70;99.90;;;;;;5113437;27;21269;-64
2021/05/13 01:16:11;;;;;;;8.90;5.17;;;15.70;99.90;;;;;;5113493;28;20479;-64
2021/05/13 01:18:39;;;;;;;4.37;3.97;;;15.60;99.90;;;;;;5113085;28;20452;-64
2021/05/13 01:21:07;;;;;;;5.83;4.67;;;15.60;99.90;;;;;;5117579;27;20475;-64
2021/05/13 01:23:34;;;;;;;7.53;5.70;;;15.60;99.90;;;;;;5112630;28;20456;-64
2021/05/13 01:26:06;;;;;;;6.37;5.70;;;15.50;99.90;;;;;;5113274;27;20456;-64
2021/05/13 01:28:32;;;;;;;8.00;5.07;;;15.50;99.90;;;;;;5099784;28;20465;-64
2021/05/13 01:30:59;;;;;;;8.17;5.30;;;15.50;99.90;;;;;;5113168;27;20464;-64
2021/05/13 01:33:27;;;;;;;5.90;5.40;;;15.40;99.90;;;;;;5112751;28;20461;-64
2021/05/13 01:35:55;;;;;;;10.53;6.07;;;15.40;99.90;;;;;;5113105;28;20465;-64
2021/05/13 01:38:24;;;;;;;6.10;5.50;;;15.40;99.90;;;;;;5112104;27;20464;-64
2021/05/13 01:40:52;;;;;;;7.10;5.00;;;15.40;99.90;;;;;;5113015;28;20533;-64
2021/05/13 01:43:19;;;;;;;8.70;5.53;;;15.30;99.90;;;;;;5112609;28;20494;-64
2021/05/13 01:45:46;;;;;;;6.33;4.43;;;15.30;99.90;;;;;;5111568;28;20533;-64
2021/05/13 01:48:12;;;;;;;9.13;5.30;;;15.30;99.90;;;;;;5110885;28;20784;-64
2021/05/13 01:50:39;;;;;;;5.77;4.60;;;15.30;99.90;;;;;;5112333;28;20942;-64
2021/05/13 01:53:07;;;;;;;6.23;5.53;;;15.30;99.90;;;;;;5112743;28;20469;-64
2021/05/13 01:55:34;;;;;;;7.57;5.00;;;15.20;99.90;;;;;;5112300;27;20475;-64
2021/05/13 01:58:02;;;;;;;9.50;5.60;;;15.20;99.90;;;;;;5112770;28;20473;-64
2021/05/13 02:00:28;;;;;;;6.97;6.25;;;15.20;99.90;;;;;;5112430;28;20222;-64
2021/05/13 02:02:55;;;;;;;11.80;6.30;;;15.20;99.90;;;;;;5111558;28;20226;-64
2021/05/13 02:05:23;;;;;;;6.17;5.60;;;15.20;99.90;;;;;;5112536;28;20234;-64
2021/05/13 02:07:49;;;;;;;7.33;5.20;;;15.20;99.90;;;;;;5110363;27;20912;-64
2021/05/13 02:10:17;;;;;;;5.77;4.60;;;15.10;99.90;;;;;;5109335;27;20479;-64
2021/05/13 02:12:44;;;;;;;5.50;4.70;;;15.20;99.90;;;;;;5110296;27;21548;-64
2021/05/13 02:15:13;;;;;;;6.20;5.40;;;15.20;99.90;;;;;;5110500;27;20468;-64
2021/05/13 02:17:40;;;;;;;7.10;5.80;;;15.10;99.90;;;;;;5109060;27;20238;-64
2021/05/13 02:20:09;;;;;;;11.05;5.88;;;15.20;99.90;;;;;;5110421;27;20223;-64
2021/05/13 02:22:36;;;;;;;6.20;5.30;;;15.10;99.90;;;;;;5109470;27;20699;-64
2021/05/13 02:25:04;;;;;;;9.63;5.85;;;15.20;99.90;;;;;;5110418;27;20219;-64
2021/05/13 02:27:30;;;;;;;8.52;5.65;;;15.20;99.90;;;;;;5110108;27;20227;-64
2021/05/13 02:29:57;;;;;;;6.30;5.65;;;15.20;99.90;;;;;;5110304;27;20262;-64
2021/05/13 02:32:24;;;;;;;7.65;6.82;;;15.20;99.90;;;;;;5109889;27;20226;-64
2021/05/13 02:34:51;;;;;;;8.05;5.63;;;15.20;99.90;;;;;;5109775;27;20234;-64
2021/05/13 02:37:19;;;;;;;9.50;6.00;;;15.10;99.90;;;;;;5110109;27;20230;-64
2021/05/13 02:39:45;;;;;;;9.03;5.23;;;15.10;99.90;;;;;;5107316;27;20518;-64
2021/05/13 02:42:12;;;;;;;8.65;6.53;;;15.10;99.90;;;;;;5110533;27;20495;-64
2021/05/13 02:44:38;;;;;;;10.13;5.17;;;15.10;99.90;;;;;;5109609;27;20225;-64
2021/05/13 02:47:05;;;;;;;5.43;4.70;;;15.10;99.90;;;;;;5109974;27;20464;-64
2021/05/13 02:49:34;;;;;;;9.63;5.47;;;15.10;99.90;;;;;;5111736;27;20487;-64
2021/05/13 02:52:00;;;;;;;8.30;5.18;;;15.10;99.90;;;;;;5113408;27;20313;-64
2021/05/13 02:54:27;;;;;;;7.78;5.30;;;15.10;99.90;;;;;;5114084;27;20238;-64
2021/05/13 02:56:53;;;;;;;6.83;5.77;;;15.00;99.90;;;;;;5116467;27;20618;-64
2021/05/13 02:59:20;;;;;;;8.45;5.45;;;15.00;99.90;;;;;;5116215;28;20476;-64
2021/05/13 03:01:46;;;;;;;8.55;6.30;;;15.00;99.90;;;;;;5115743;27;20222;-64
2021/05/13 03:04:13;;;;;;;10.27;6.53;;;15.00;99.90;;;;;;5116209;27;20222;-64
2021/05/13 03:06:40;;;;;;;10.13;6.90;;;15.00;99.90;;;;;;5115890;28;20368;-64
2021/05/13 03:09:07;;;;;;;10.60;6.70;;;15.10;99.90;;;;;;5116030;27;20250;-64
2021/05/13 03:11:34;;;;;;;10.60;6.50;;;15.00;99.90;;;;;;5115733;28;20700;-64
2021/05/13 03:14:02;;;;;;;6.65;5.97;;;15.00;99.90;;;;;;5116050;28;20525;-64
2021/05/13 03:16:29;;;;;;;9.90;5.30;;;15.00;99.90;;;;;;5115811;27;20721;-64
2021/05/13 03:18:57;;;;;;;7.93;5.40;;;15.00;99.90;;;;;;5115967;28;20812;-64
2021/05/13 03:21:28;;;;;;;13.80;6.43;;;15.00;99.90;;;;;;5115485;27;20227;-64
2021/05/13 03:23:58;;;;;;;6.23;5.57;;;15.00;99.90;;;;;;5115960;27;20214;-64
2021/05/13 03:26:36;;;;;;;10.48;7.53;;;15.00;99.90;;;;;;5115438;28;20460;-64
2021/05/13 03:29:02;;;;;;;9.57;5.38;;;15.00;99.90;;;;;;5115709;28;20236;-64
2021/05/13 03:31:29;;;;;;;9.83;6.33;;;15.00;99.90;;;;;;5115461;28;20219;-64
2021/05/13 03:33:55;;;;;;;7.88;7.05;;;14.90;99.90;;;;;;5115546;28;20803;-64
2021/05/13 03:36:21;;;;;;;6.67;5.97;;;14.90;99.90;;;;;;5115479;28;20230;-64
2021/05/13 03:38:48;;;;;;;11.00;6.33;;;14.90;99.90;;;;;;5114954;27;20464;-64
2021/05/13 03:41:15;;;;;;;8.50;6.13;;;14.90;99.90;;;;;;5115544;27;20464;-64
2021/05/13 03:43:42;;;;;;;10.38;5.72;;;14.90;99.90;;;;;;5114785;28;20465;-64
2021/05/13 03:46:08;;;;;;;7.32;6.50;;;14.90;99.90;;;;;;5115592;28;20229;-64
2021/05/13 03:48:35;;;;;;;6.18;5.57;;;14.90;99.90;;;;;;5114727;28;20241;-64
2021/05/13 03:51:01;;;;;;;6.20;5.00;;;14.90;99.90;;;;;;5107096;28;20218;-64
2021/05/13 03:53:28;;;;;;;7.20;6.50;;;14.90;99.90;;;;;;5114799;28;20577;-64
2021/05/13 03:55:54;;;;;;;7.00;6.30;;;15.00;99.90;;;;;;5115182;27;20468;-64
2021/05/13 03:58:26;;;;;;;8.03;6.60;;;14.90;99.90;;;;;;5101264;28;20547;-64
2021/05/13 04:01:06;;;;;;;8.67;5.87;;;14.90;99.90;;;;;;5114404;28;20533;-64
2021/05/13 04:03:33;;;;;;;9.80;6.20;;;14.90;99.90;;;;;;5103598;28;20999;-65
2021/05/13 04:05:59;;;;;;;7.03;5.60;;;14.90;99.90;;;;;;5114897;28;20464;-64
2021/05/13 04:08:26;;;;;;;6.80;6.00;;;14.90;99.90;;;;;;5114825;28;20453;-64
2021/05/13 04:10:53;;;;;;;5.90;5.33;;;15.00;99.90;;;;;;5114452;27;20467;-64
2021/05/13 04:13:20;;;;;;;8.02;6.13;;;14.90;99.90;;;;;;5115000;28;20533;-64
2021/05/13 04:15:48;;;;;;;7.97;6.70;;;14.90;99.90;;;;;;5114439;28;20230;-64
2021/05/13 04:18:15;;;;;;;7.20;5.72;;;14.90;99.90;;;;;;5114631;28;20472;-64
2021/05/13 04:20:42;;;;;;;7.90;6.17;;;14.90;99.90;;;;;;5114112;28;20234;-64
2021/05/13 04:23:09;;;;;;;6.35;5.75;;;14.90;99.90;;;;;;5114898;27;20475;-64
2021/05/13 04:25:35;;;;;;;7.17;6.07;;;14.90;99.90;;;;;;5114231;28;20235;-64
2021/05/13 04:28:02;;;;;;;10.10;6.82;;;14.90;99.90;;;;;;5114759;27;20484;-65
2021/05/13 04:30:29;;;;;;;6.40;5.80;;;14.90;99.90;;;;;;5113823;27;20234;-65
2021/05/13 04:32:56;;;;;;;10.90;6.73;;;14.90;99.90;;;;;;5112391;27;20455;-65
2021/05/13 04:35:23;;;;;;;8.57;6.40;;;14.90;99.90;;;;;;5114356;27;20461;-64
2021/05/13 04:37:49;;;;;;;7.37;5.73;;;14.90;99.90;;;;;;5114062;27;20981;-65
2021/05/13 04:40:16;;;;;;;6.88;6.03;;;15.00;99.90;;;;;;5114408;27;20472;-65
2021/05/13 04:42:42;;;;;;;7.93;6.95;;;15.00;99.90;;;;;;5113592;27;20227;-65
2021/05/13 04:45:10;;;;;;;11.07;6.80;;;15.00;99.90;;;;;;5112618;27;20218;-65
2021/05/13 04:47:52;;;;;;;7.90;5.63;;;15.00;99.90;;;;;;5111839;27;20476;-64
2021/05/13 04:50:19;;;;;;;6.97;6.27;;;15.00;99.90;;;;;;5112581;27;20819;-64
2021/05/13 04:52:45;;;;;;;7.13;6.43;;;15.00;99.90;;;;;;5112172;27;20456;-64
2021/05/13 04:55:13;;;;;;;10.45;6.28;;;15.00;99.90;;;;;;5112382;27;20475;-64
2021/05/13 04:57:39;;;;;;;6.80;6.10;;;15.00;99.90;;;;;;5112980;27;20688;-64
2021/05/13 05:00:09;;;;;;;6.63;6.03;;;15.10;99.90;;;;;;5114444;27;20800;-64
2021/05/13 05:02:35;;;;;;;9.30;7.47;;;15.10;99.90;;;;;;5113551;27;20630;-64
2021/05/13 05:05:04;;;;;;;8.70;7.73;;;15.10;99.90;;;;;;5114071;27;20230;-64
2021/05/13 05:07:31;;;;;;;7.40;6.70;;;15.10;99.90;;;;;;5114070;27;20864;-64
2021/05/13 05:09:57;;;;;;;8.40;7.60;;;15.10;99.90;;;;;;5113680;27;20950;-64
2021/05/13 05:12:24;;;;;;;7.70;6.53;;;15.10;99.90;;;;;;5113298;27;20703;-64
2021/05/13 05:14:50;;;;;;;7.55;6.85;;;15.10;99.90;;;;;;5113364;27;20476;-64
2021/05/13 05:17:17;;;;;;;10.50;7.13;;;15.10;99.90;;;;;;5113960;27;20237;-64
2021/05/13 05:19:43;;;;;;;8.60;7.80;;;15.10;99.90;;;;;;5113688;27;20999;-64
2021/05/13 05:22:10;;;;;;;8.27;6.47;;;15.10;99.90;;;;;;5113735;27;21023;-64
2021/05/13 05:24:37;;;;;;;7.77;6.97;;;15.10;99.90;;;;;;5113354;27;20538;-64
2021/05/13 05:27:04;;;;;;;6.80;6.20;;;15.10;99.90;;;;;;5113668;27;20525;-64
2021/05/13 05:29:30;;;;;;;6.20;5.70;;;15.10;99.90;;;;;;5113603;27;20465;-64
2021/05/13 05:31:57;;;;;;;6.63;5.90;;;15.10;99.90;;;;;;5113222;27;20460;-64
2021/05/13 05:34:24;;;;;;;7.63;6.67;;;15.20;99.90;;;;;;5113527;27;20464;-64
2021/05/13 05:36:50;;;;;;;8.87;6.87;;;15.20;99.90;;;;;;5113373;27;20845;-64
2021/05/13 05:39:17;;;;;;;6.23;5.63;;;15.10;99.90;;;;;;5113708;27;20529;-64
2021/05/13 05:41:44;;;;;;;8.13;6.97;;;15.20;99.90;;;;;;5113164;27;20945;-64
2021/05/13 05:44:10;;;;;;;8.17;5.97;;;15.20;99.90;;;;;;5113534;27;20461;-64
2021/05/13 05:46:37;;;;;;;5.73;5.10;;;15.20;99.90;;;;;;5112937;27;20460;-64
2021/05/13 05:49:03;;;;;;;6.55;5.55;;;15.20;99.90;;;;;;5113544;27;20476;-64
2021/05/13 05:51:30;;;;;;;6.60;6.00;;;15.20;99.90;;;;;;5113300;27;20223;-64
2021/05/13 05:53:56;;;;;;;7.72;6.55;;;15.20;99.90;;;;;;5113065;27;20237;-64
2021/05/13 05:56:24;;;;;;;6.20;5.60;;;15.20;99.90;;;;;;5113159;27;20219;-64
2021/05/13 05:58:50;;;;;;;9.20;5.50;;;15.30;99.90;;;;;;5112755;27;20553;-64
2021/05/13 06:01:17;;;;;;;6.85;5.93;;;15.30;99.90;;;;;;5113349;27;20215;-64
2021/05/13 06:03:43;;;;;;;8.90;6.27;;;15.30;99.90;;;;;;5112583;27;20452;-64
2021/05/13 06:06:10;;;;;;;5.18;4.72;;;15.20;99.90;;;;;;5113334;27;20858;-64
2021/05/13 06:08:36;;;;;;;5.28;4.70;;;15.30;99.90;;;;;;5113320;27;20241;-64
2021/05/13 06:11:02;;;;;;;5.90;5.23;;;15.30;99.90;;;;;;5112782;27;20215;-64
2021/05/13 06:13:30;;;;;;;5.73;5.10;;;15.30;99.90;;;;;;5113119;27;20526;-64
2021/05/13 06:15:56;;;;;;;5.85;5.25;;;15.30;99.90;;;;;;5112513;27;20465;-64
2021/05/13 06:18:23;;;;;;;5.88;5.05;;;15.30;99.90;;;;;;5112885;27;20233;-65
2021/05/13 06:20:49;;;;;;;4.60;4.20;;;15.30;99.90;;;;;;5112649;27;20234;-65
2021/05/13 06:23:17;;;;;;;4.90;4.50;;;15.30;99.90;;;;;;5114407;27;20478;-64
2021/05/13 06:25:43;;;;;;;3.67;3.30;;;15.30;99.90;;;;;;5116837;27;20246;-64
2021/05/13 06:28:10;;;;;;;4.77;4.33;;;15.30;99.90;;;;;;5117132;27;20226;-65
2021/05/13 06:30:38;;;;;;;4.25;3.85;;;15.30;99.90;;;;;;5117349;27;20475;-65
2021/05/13 06:33:05;;;;;;;3.90;3.50;;;15.30;99.90;;;;;;5116858;27;20207;-65
2021/05/13 06:35:35;;;;;;;7.20;4.47;;;15.30;99.90;;;;;;5116996;27;20981;-64
2021/05/13 06:38:01;;;;;;;5.30;4.80;;;15.30;99.90;;;;;;5116587;27;20222;-65
2021/05/13 06:40:27;;;;;;;4.70;4.20;;;15.30;99.90;;;;;;5116899;27;20464;-65
2021/05/13 06:42:54;;;;;;;6.35;5.72;;;15.30;99.90;;;;;;5116577;27;20707;-64
2021/05/13 06:45:20;;;;;;;10.27;8.97;;;15.40;99.90;;;;;;5116804;27;20218;-63
2021/05/13 06:47:48;;;;;;;7.30;6.37;;;15.40;99.90;;;;;;5116327;27;20464;-64
2021/05/13 06:50:15;;;;;;;6.20;5.70;;;15.40;99.90;;;;;;5117031;27;20460;-64
2021/05/13 06:52:41;;;;;;;6.80;6.20;;;15.40;99.90;;;;;;5116286;27;20808;-64
2021/05/13 06:55:09;;;;;;;7.43;6.73;;;15.40;99.90;;;;;;5116668;27;20464;-64
2021/05/13 06:57:35;;;;;;;7.05;6.43;;;15.40;99.90;;;;;;5116486;27;20470;-64
2021/05/13 07:00:02;;;;;;;7.43;6.13;;;15.40;99.90;;;;;;5115982;27;20241;-64
2021/05/13 07:02:31;;;;;;;8.60;6.50;;;15.40;99.90;;;;;;5116530;27;20630;-64
2021/05/13 07:04:59;;;;;;;9.30;7.40;;;15.40;99.90;;;;;;5116043;27;20302;-64
2021/05/13 07:07:26;;;;;;;7.90;7.22;;;15.40;99.90;;;;;;5116324;27;20970;-64
2021/05/13 07:09:52;;;;;;;11.73;7.97;;;15.40;99.90;;;;;;5116174;27;20640;-64
2021/05/13 07:12:19;;;;;;;9.33;6.90;;;15.40;99.90;;;;;;5116137;27;20518;-64
2021/05/13 07:14:45;;;;;;;8.30;7.50;;;15.30;99.90;;;;;;5115834;27;20471;-65
2021/05/13 07:17:12;;;;;;;7.80;7.20;;;15.30;99.90;;;;;;5116095;27;20229;-64
2021/05/13 07:19:38;;;;;;;7.93;7.23;;;15.30;99.90;;;;;;5116190;27;20238;-64
2021/05/13 07:22:06;;;;;;;7.35;6.65;;;15.30;99.90;;;;;;5116019;27;20456;-64
2021/05/13 07:24:32;;;;;;;8.93;7.63;;;15.30;99.90;;;;;;5116242;27;20560;-64
2021/05/13 07:26:58;;;;;;;7.13;6.50;;;15.30;99.90;;;;;;5115419;27;21022;-65
2021/05/13 07:29:25;;;;;;;8.85;8.00;;;15.30;99.90;;;;;;5116073;27;20563;-66
2021/05/13 07:31:51;;;;;;;7.95;7.15;;;15.30;99.90;;;;;;5115483;27;20235;-65
2021/05/13 07:34:18;;;;;;;7.17;6.50;;;15.30;99.90;;;;;;5115079;27;20218;-64
2021/05/13 07:36:44;;;;;;;7.05;6.38;;;15.30;99.90;;;;;;5114934;27;20468;-64
2021/05/13 07:39:12;;;;;;;6.77;6.07;;;15.30;99.90;;;;;;5115764;27;20410;-64
2021/05/13 07:41:39;;;;;;;6.80;6.18;;;15.30;99.90;;;;;;5115687;27;20475;-63
2021/05/13 07:44:06;;;;;;;12.82;10.20;;;15.30;99.90;;;;;;5115444;27;20235;-64
2021/05/13 07:46:37;;;;;;;10.30;8.03;;;15.30;99.90;;;;;;5115591;27;20703;-64
2021/05/13 07:49:04;;;;;;;8.20;7.40;;;15.30;99.90;;;;;;5115219;27;20517;-64
2021/05/13 07:51:30;;;;;;;7.45;6.72;;;15.30;99.90;;;;;;5115579;27;20223;-64
2021/05/13 07:53:57;;;;;;;8.00;7.20;;;15.30;99.90;;;;;;5115082;27;20223;-64
2021/05/13 07:56:24;;;;;;;6.68;5.97;;;15.30;99.90;;;;;;5115438;27;20223;-65
2021/05/13 07:58:51;;;;;;;8.17;6.63;;;15.30;99.90;;;;;;5115196;27;20227;-65
2021/05/13 08:01:17;;;;;;;7.20;6.50;;;15.30;99.90;;;;;;5115295;27;20464;-65
2021/05/13 08:03:44;;;;;;;6.80;5.45;;;15.30;99.90;;;;;;5115050;27;20267;-65
2021/05/13 08:06:11;;;;;;;7.10;6.50;;;15.30;99.90;;;;;;5114874;27;20230;-65
2021/05/13 08:08:37;;;;;;;7.37;6.67;;;15.20;99.90;;;;;;5115180;27;20257;-65
2021/05/13 08:11:04;;;;;;;6.90;6.33;;;15.30;99.90;;;;;;5114874;27;20476;-64
2021/05/13 08:13:31;;;;;;;8.33;7.53;;;15.30;99.90;;;;;;5115077;27;20468;-65
2021/05/13 08:15:58;;;;;;;9.47;7.67;;;15.30;99.90;;;;;;5114670;27;20473;-64
2021/05/13 08:18:25;;;;;;;8.57;7.78;;;15.30;99.90;;;;;;5115106;27;20463;-64
2021/05/13 08:20:52;;;;;;;8.93;6.57;;;15.30;99.90;;;;;;5114694;27;20272;-64
2021/05/13 08:23:18;;;;;;;7.95;7.28;;;15.30;99.90;;;;;;5108175;27;20639;-64
2021/05/13 08:25:44;;;;;;;10.10;9.17;;;15.20;99.90;;;;;;5109394;27;20606;-64
2021/05/13 08:28:11;;;;;;;9.20;8.07;;;15.30;99.90;;;;;;5106743;27;20464;-65
2021/05/13 08:30:38;;;;;;;8.23;7.37;;;15.30;99.90;;;;;;5094128;28;20833;-64
2021/05/13 08:33:05;;;;;;;7.97;7.20;;;15.30;99.90;;;;;;5109248;27;20863;-64
2021/05/13 08:35:31;;;;;;;9.60;8.60;;;15.20;99.90;;;;;;5114323;27;20475;-65
2021/05/13 08:37:58;;;;;;;8.50;7.65;;;15.20;99.90;;;;;;5109789;27;20505;-65
2021/05/13 08:40:25;;;;;;;8.80;8.00;;;15.20;99.90;;;;;;5114618;27;20223;-64
2021/05/13 08:42:51;;;;;;;8.45;7.65;;;15.30;99.90;;;;;;5112929;27;20461;-65
2021/05/13 08:45:18;;;;;;;7.18;6.57;;;15.30;99.90;;;;;;5102641;27;20219;-65
2021/05/13 08:47:46;;;;;;;7.00;6.20;;;15.30;99.90;;;;;;5110368;27;20218;-64
2021/05/13 08:50:13;;;;;;;8.07;7.30;;;15.20;99.90;;;;;;5113848;27;20460;-65
2021/05/13 08:52:39;;;;;;;7.57;6.65;;;15.20;99.90;;;;;;5113435;27;20934;-64
2021/05/13 08:55:07;;;;;;;6.60;6.10;;;15.20;99.90;;;;;;5112738;27;20211;-65
2021/05/13 08:57:33;;;;;;;6.70;6.05;;;15.20;99.90;;;;;;5113975;27;20222;-65
2021/05/13 09:00:00;;;;;;;7.47;6.00;;;15.10;99.90;;;;;;5109807;27;20223;-65
2021/05/13 09:02:29;;;;;;;9.53;5.97;;;15.10;99.90;;;;;;5110895;27;20287;-65
2021/05/13 09:04:58;;;;;;;7.28;6.40;;;15.00;99.90;;;;;;5111398;27;20456;-65
2021/05/13 09:07:27;;;;;;;9.70;6.95;;;15.00;99.90;;;;;;5114134;27;20229;-65
2021/05/13 09:09:59;;;;;;;8.38;7.18;;;14.90;99.90;;;;;;5109351;27;20226;-64
2021/05/13 09:12:27;;;;;;;8.48;7.00;;;14.90;99.90;;;;;;5105969;27;20215;-65
2021/05/13 09:15:04;;;;;;;8.48;6.68;;;14.90;99.90;;;;;;5113165;27;20679;-65
2021/05/13 09:17:31;;;;;;;6.80;6.10;;;14.80;99.90;;;;;;5108725;27;20311;-66
2021/05/13 09:20:00;;;;;;;13.50;7.80;;;14.80;99.90;;;;;;5113181;27;20300;-65
2021/05/13 09:22:28;;;;;;;7.07;5.18;;;14.80;99.90;;;;;;5108679;27;20219;-65
2021/05/13 09:24:57;;;;;;;7.22;6.50;;;14.80;99.90;;;;;;5111213;27;20741;-65
2021/05/13 09:27:26;;;;;;;6.88;5.97;;;14.70;99.90;;;;;;5113352;27;20234;-65
2021/05/13 09:30:16;;;;;;;6.40;5.90;;;14.70;99.90;;;;;;5105594;27;20207;-66
2021/05/13 09:32:44;;;;;;;8.20;6.13;;;14.70;99.90;;;;;;5104604;27;20670;-66
2021/05/13 09:35:15;;;;;;;9.38;6.55;;;14.70;99.90;;;;;;5109180;27;20211;-67
2021/05/13 09:37:46;;;;;;;5.85;5.25;;;14.60;99.90;;;;;;5103277;27;20219;-66
2021/05/13 09:40:14;;;;;;;10.50;8.93;;;14.70;99.90;;;;;;5096343;28;20238;-68
2021/05/13 09:42:41;;;;;;;12.25;11.00;;;14.60;99.90;;;;;;5106633;27;20222;-68
2021/05/13 09:45:09;;;;;;;12.02;7.50;;;14.60;99.90;;;;;;5130001;27;20282;-68
2021/05/13 09:47:37;;;;;;;7.35;6.60;;;14.60;99.90;;;;;;5114547;27;20218;-68
2021/05/13 09:50:22;;;;;;;9.48;8.57;;;14.60;99.90;;;;;;5111684;27;20284;-68
2021/05/13 09:52:51;;;;;;;8.77;7.88;;;14.60;99.90;;;;;;5112897;27;20617;-68
2021/05/13 09:55:21;;;;;;;8.85;7.95;;;14.60;99.90;;;;;;5112410;27;20226;-68
2021/05/13 09:57:53;;;;;;;8.57;7.47;;;14.60;99.90;;;;;;5114428;27;20299;-68
2021/05/13 10:00:40;;;;;;;8.03;7.23;;;14.60;99.90;;;;;;5105844;27;20250;-68
2021/05/13 10:03:10;;;;;;;11.25;10.10;;;14.50;99.90;;;;;;5107452;27;21107;-68
2021/05/13 10:05:38;;;;;;;10.50;9.40;;;14.50;99.90;;;;;;5112120;27;20245;-68
2021/05/13 10:08:05;;;;;;;7.97;6.95;;;14.50;99.90;;;;;;5108091;27;20242;-68
2021/05/13 10:10:32;;;;;;;6.82;6.13;;;14.60;99.90;;;;;;5112591;27;20218;-68
2021/05/13 10:12:59;;;;;;;6.77;6.17;;;14.60;99.90;;;;;;5109194;27;20214;-68
2021/05/13 10:15:26;;;;;;;7.47;6.82;;;14.60;99.90;;;;;;5110618;27;20468;-68
2021/05/13 10:17:57;;;;;;;7.20;6.50;;;14.60;99.90;;;;;;5112264;27;20226;-67
2021/05/13 10:20:25;;;;;;;8.45;7.75;;;14.60;99.90;;;;;;5111560;27;21030;-68
2021/05/13 10:22:54;;;;;;;7.15;6.30;;;14.60;99.90;;;;;;5110842;27;20218;-68
2021/05/13 10:25:23;;;;;;;7.35;6.65;;;14.60;99.90;;;;;;5109519;27;20557;-68
2021/05/13 10:27:51;;;;;;;7.10;6.43;;;14.60;99.90;;;;;;5109572;27;20684;-67
2021/05/13 10:30:22;;;;;;;11.35;6.60;;;14.60;99.90;;;;;;5106287;28;20227;-67
2021/05/13 10:33:11;;;;;;;6.93;6.05;;;14.70;99.90;;;;;;5107621;27;20223;-67
2021/05/13 10:35:38;;;;;;;6.57;5.97;;;14.70;99.90;;;;;;5103956;28;20619;-67
2021/05/13 10:38:10;;;;;;;6.10;5.60;;;14.70;99.90;;;;;;5112312;27;20689;-67
2021/05/13 10:41:03;;;;;;;5.55;5.15;;;14.70;99.90;;;;;;5111287;27;20226;-67
2021/05/13 10:43:29;;;;;;;6.85;6.10;;;14.70;99.90;;;;;;5108839;27;20264;-67
2021/05/13 10:45:57;;;;;;;7.97;6.65;;;14.80;99.90;;;;;;5112388;28;20614;-67
2021/05/13 10:48:26;;;;;;;9.52;6.35;;;14.80;99.90;;;;;;5111976;27;20230;-67
2021/05/13 10:50:55;;;;;;;6.60;5.47;;;14.80;99.90;;;;;;5107987;27;20286;-67
2021/05/13 10:53:45;;;;;;;5.65;5.15;;;14.90;99.90;;;;;;5108143;27;20239;-68
2021/05/13 10:56:14;;;;;;;6.22;5.57;;;14.90;99.90;;;;;;5110126;27;20747;-68
2021/05/13 10:59:04;;;;;;;7.35;6.47;;;14.90;99.90;;;;;;5103958;27;20275;-68
2021/05/13 11:01:39;;;;;;;6.70;5.97;;;15.00;99.90;;;;;;5110261;27;20301;-67
2021/05/13 11:04:42;;;;;;;5.90;4.80;;;15.10;99.90;;;;;;5110285;27;20217;-67
2021/05/13 11:07:33;;;;;;;5.53;5.10;;;15.10;99.90;;;;;;5096346;27;20229;-67
2021/05/13 11:10:03;;;;;;;6.27;5.50;;;15.10;99.90;;;;;;5113209;27;20456;-67
2021/05/13 11:12:40;;;;;;;8.67;7.80;;;15.20;99.90;;;;;;5113769;27;20460;-67
2021/05/13 11:15:12;;;;;;;6.97;6.27;;;15.20;99.90;;;;;;5114354;27;20493;-67
2021/05/13 11:18:07;;;;;;;9.18;7.22;;;15.30;99.90;;;;;;5114492;27;20460;-67
2021/05/13 11:20:35;;;;;;;8.60;6.50;;;15.30;99.90;;;;;;5095148;28;20980;-67
2021/05/13 11:23:05;;;;;;;6.93;6.23;;;15.30;99.90;;;;;;5109446;27;20226;-67
2021/05/13 11:25:38;;;;;;;6.00;5.40;;;15.30;99.90;;;;;;5115604;27;20483;-67
2021/05/13 11:28:36;;;;;;;5.80;5.07;;;15.30;99.90;;;;;;5115770;27;20504;-67
2021/05/13 11:31:19;;;;;;;5.83;4.90;;;15.30;99.90;;;;;;5107379;27;20229;-67
2021/05/13 11:33:47;;;;;;;6.80;6.20;;;15.30;99.90;;;;;;5115753;27;20488;-68
2021/05/13 11:36:17;;;;;;;6.60;6.05;;;15.30;99.90;;;;;;5114948;27;20457;-68
2021/05/13 11:38:46;;;;;;;6.60;5.43;;;15.30;99.90;;;;;;5115424;27;20280;-68
2021/05/13 11:41:17;;;;;;;6.00;5.40;;;15.20;99.90;;;;;;5112286;27;20473;-68
2021/05/13 11:43:44;;;;;;;6.03;5.47;;;15.20;99.90;;;;;;5112865;27;20468;-68
2021/05/13 11:46:11;;;;;;;6.00;5.40;;;15.20;99.90;;;;;;5115139;27;20481;-67
2021/05/13 11:48:39;;;;;;;6.90;6.17;;;15.20;99.90;;;;;;5115579;27;20223;-67
2021/05/13 11:51:08;;;;;;;6.68;5.93;;;15.20;99.90;;;;;;5102329;27;20462;-68
2021/05/13 11:53:36;;;;;;;8.40;7.60;;;15.10;99.90;;;;;;5105946;27;20216;-68
2021/05/13 11:56:04;;;;;;;6.93;5.65;;;15.10;99.90;;;;;;5098508;27;20479;-68
2021/05/13 11:58:38;;;;;;;5.70;5.17;;;15.10;99.90;;;;;;5113947;27;20242;-68
2021/05/13 12:01:26;;;;;;;7.43;6.63;;;15.10;99.90;;;;;;5113404;27;20467;-67
2021/05/13 12:03:59;;;;;;;8.32;6.75;;;15.00;99.90;;;;;;5113239;27;20222;-67
2021/05/13 12:06:27;;;;;;;6.63;6.10;;;15.00;99.90;;;;;;5112902;27;20222;-67
2021/05/13 12:08:54;;;;;;;6.30;5.63;;;15.00;99.90;;;;;;5111266;27;20822;-67
2021/05/13 12:11:23;;;;;;;6.25;5.75;;;15.00;99.90;;;;;;5109640;27;20803;-67
2021/05/13 12:13:51;;;;;;;7.13;6.53;;;15.00;99.90;;;;;;5114838;27;20226;-68
2021/05/13 12:16:19;;;;;;;6.00;5.50;;;15.00;99.90;;;;;;5113534;27;20672;-68
2021/05/13 12:18:48;;;;;;;7.25;6.60;;;15.00;99.90;;;;;;5111588;27;20954;-68
2021/05/13 12:21:16;;;;;;;5.70;5.20;;;14.90;99.90;;;;;;5113866;27;20219;-68
2021/05/13 12:23:45;;;;;;;5.67;5.17;;;14.90;99.90;;;;;;5112595;27;20469;-68
2021/05/13 12:26:12;;;;;;;6.00;5.40;;;14.90;99.90;;;;;;5114116;27;20464;-68
2021/05/13 12:28:39;;;;;;;5.47;4.97;;;14.90;99.90;;;;;;5112677;27;20568;-68
2021/05/13 12:31:07;;;;;;;4.90;4.50;;;14.90;99.90;;;;;;5113298;27;20623;-68
2021/05/13 12:33:35;;;;;;;4.93;4.53;;;14.90;99.90;;;;;;5114434;27;20210;-68
2021/05/13 12:36:10;;;;;;;4.57;4.15;;;15.00;99.90;;;;;;5112665;27;20310;-67
2021/05/13 12:38:42;;;;;;;6.70;4.68;;;15.00;99.90;;;;;;5112743;27;20245;-68
2021/05/13 12:41:10;;;;;;;5.25;4.75;;;15.00;99.90;;;;;;5093492;28;20284;-67
2021/05/13 12:43:37;;;;;;;4.97;4.57;;;15.00;99.90;;;;;;5114381;27;20306;-67
2021/05/13 12:46:21;;;;;;;4.43;4.03;;;15.10;99.90;;;;;;5113808;27;20607;-67
2021/05/13 12:48:49;;;;;;;5.28;4.88;;;15.10;99.90;;;;;;5097590;28;20223;-67
2021/05/13 12:51:18;;;;;;;4.90;4.50;;;15.10;99.90;;;;;;5113134;27;20234;-67
2021/05/13 12:53:50;;;;;;;4.67;4.27;;;15.10;99.90;;;;;;5114042;27;20464;-67